Time,TemperatureF,DewpointF,PressureIn,WindDirection,WindDirectionDegrees,WindSpeedMPH,WindSpeedGustMPH,Humidity,HourlyPrecipIn,Conditions,Clouds,dailyrainin,SolarRadiationWatts/m^2,SoftwareType,DateUTC
2013-07-24 00:01:00,52.0,46.0,-100.00,North,355,4.0,7.0,80,0.00,,,0.00,0.000000,,2013-07-24 04:01:00,
2013-07-24 00:32:00,49.0,46.0,-100.00,WNW,303,2.0,5.0,88,0.00,,,0.00,0.000000,,2013-07-24 04:32:00,
2013-07-24 00:43:00,49.0,46.0,-100.00,WNW,303,2.0,5.0,88,0.00,,,0.00,0.000000,,2013-07-24 04:43:00,
2013-07-24 00:53:00,49.0,46.0,-100.00,WNW,303,2.0,5.0,88,0.00,,,0.00,0.000000,,2013-07-24 04:53:00,
2013-07-24 01:02:00,49.0,46.0,-100.00,WNW,303,2.0,5.0,88,0.00,,,0.00,0.000000,,2013-07-24 05:02:00,
2013-07-24 01:33:00,48.0,46.0,-100.00,NNW,342,4.0,6.0,92,0.00,,,0.00,0.000000,,2013-07-24 05:33:00,
2013-07-24 01:43:00,48.0,46.0,-100.00,NNW,342,4.0,6.0,92,0.00,,,0.00,0.000000,,2013-07-24 05:43:00,
2013-07-24 01:52:00,48.0,46.0,-100.00,NNW,342,4.0,6.0,92,0.00,,,0.00,0.000000,,2013-07-24 05:52:00,
2013-07-24 02:01:00,48.0,46.0,-100.00,NNW,342,4.0,6.0,92,0.00,,,0.00,0.000000,,2013-07-24 06:01:00,
2013-07-24 02:34:00,47.0,46.0,-100.00,North,0,2.0,7.0,95,0.00,,,0.00,0.000000,,2013-07-24 06:34:00,
2013-07-24 02:43:00,47.0,46.0,-100.00,North,0,2.0,7.0,95,0.00,,,0.00,0.000000,,2013-07-24 06:43:00,
2013-07-24 02:53:00,47.0,46.0,-100.00,North,0,2.0,7.0,95,0.00,,,0.00,0.000000,,2013-07-24 06:53:00,
2013-07-24 03:02:00,47.0,46.0,-100.00,North,0,2.0,7.0,95,0.00,,,0.00,0.000000,,2013-07-24 07:02:00,
2013-07-24 03:22:00,43.0,42.0,-100.00,South,187,1.0,4.0,95,0.00,,,0.00,0.000000,,2013-07-24 07:22:00,
2013-07-24 03:32:00,43.0,42.0,-100.00,South,187,1.0,4.0,95,0.00,,,0.00,0.000000,,2013-07-24 07:32:00,
2013-07-24 03:43:00,43.0,42.0,-100.00,South,187,1.0,4.0,95,0.00,,,0.00,0.000000,,2013-07-24 07:43:00,
2013-07-24 03:53:00,43.0,42.0,-100.00,South,187,1.0,4.0,95,0.00,,,0.00,0.000000,,2013-07-24 07:53:00,
2013-07-24 04:02:00,43.0,42.0,-100.00,South,187,1.0,4.0,95,0.00,,,0.00,0.000000,,2013-07-24 08:02:00,
2013-07-24 04:22:00,40.0,39.0,-100.00,WNW,291,0.0,4.0,96,0.00,,,0.00,0.000000,,2013-07-24 08:22:00,
2013-07-24 04:32:00,40.0,39.0,-100.00,WNW,291,0.0,4.0,96,0.00,,,0.00,0.000000,,2013-07-24 08:32:00,
2013-07-24 04:43:00,40.0,39.0,-100.00,WNW,291,0.0,4.0,96,0.00,,,0.00,0.000000,,2013-07-24 08:43:00,
2013-07-24 04:52:00,40.0,39.0,-100.00,WNW,291,0.0,4.0,96,0.00,,,0.00,0.000000,,2013-07-24 08:52:00,
2013-07-24 05:02:00,40.0,39.0,-100.00,WNW,291,0.0,4.0,96,0.00,,,0.00,0.000000,,2013-07-24 09:02:00,
2013-07-24 05:32:00,42.0,41.0,-100.00,West,279,1.0,5.0,97,0.00,,,0.00,0.000000,,2013-07-24 09:32:00,
2013-07-24 05:43:00,42.0,41.0,-100.00,West,279,1.0,5.0,97,0.00,,,0.00,0.000000,,2013-07-24 09:43:00,
2013-07-24 05:53:00,42.0,41.0,-100.00,West,279,1.0,5.0,97,0.00,,,0.00,0.000000,,2013-07-24 09:53:00,
2013-07-24 06:02:00,42.0,41.0,-100.00,West,279,1.0,5.0,97,0.00,,,0.00,0.000000,,2013-07-24 10:02:00,
2013-07-24 06:33:00,43.0,42.0,-100.00,West,277,4.0,8.0,97,0.00,,,0.00,0.000000,,2013-07-24 10:33:00,
2013-07-24 06:43:00,43.0,42.0,-100.00,West,277,4.0,8.0,97,0.00,,,0.00,0.000000,,2013-07-24 10:43:00,
2013-07-24 06:53:00,43.0,42.0,-100.00,West,277,4.0,8.0,97,0.00,,,0.00,0.000000,,2013-07-24 10:53:00,
2013-07-24 07:02:00,43.0,42.0,-100.00,West,277,4.0,8.0,97,0.00,,,0.00,0.000000,,2013-07-24 11:02:00,
2013-07-24 07:32:00,45.0,44.0,-100.00,WNW,286,2.0,6.0,98,0.00,,,0.00,16.000000,,2013-07-24 11:32:00,
2013-07-24 07:44:00,45.0,44.0,-100.00,WNW,286,2.0,6.0,98,0.00,,,0.00,16.000000,,2013-07-24 11:44:00,
2013-07-24 07:52:00,45.0,44.0,-100.00,WNW,286,2.0,6.0,98,0.00,,,0.00,16.000000,,2013-07-24 11:52:00,
2013-07-24 08:02:00,45.0,44.0,-100.00,WNW,286,2.0,6.0,98,0.00,,,0.00,16.000000,,2013-07-24 12:02:00,
2013-07-24 08:32:00,53.0,50.0,-100.00,West,278,3.0,5.0,90,0.00,,,0.00,192.000000,,2013-07-24 12:32:00,
2013-07-24 08:42:00,53.0,50.0,-100.00,West,278,3.0,5.0,90,0.00,,,0.00,192.000000,,2013-07-24 12:42:00,
2013-07-24 08:52:00,53.0,50.0,-100.00,West,278,3.0,5.0,90,0.00,,,0.00,192.000000,,2013-07-24 12:52:00,
2013-07-24 09:02:00,53.0,50.0,-100.00,West,278,3.0,5.0,90,0.00,,,0.00,192.000000,,2013-07-24 13:02:00,
2013-07-24 09:32:00,58.0,49.0,-100.00,West,271,7.0,10.0,71,0.00,,,0.00,346.000000,,2013-07-24 13:32:00,
2013-07-24 09:43:00,58.0,49.0,-100.00,West,271,7.0,10.0,71,0.00,,,0.00,346.000000,,2013-07-24 13:43:00,
2013-07-24 09:53:00,58.0,49.0,-100.00,West,271,7.0,10.0,71,0.00,,,0.00,346.000000,,2013-07-24 13:53:00,
2013-07-24 10:02:00,58.0,49.0,-100.00,West,271,7.0,10.0,71,0.00,,,0.00,346.000000,,2013-07-24 14:02:00,
2013-07-24 10:22:00,63.0,48.0,-100.00,WNW,295,6.0,10.0,57,0.00,,,0.00,552.000000,,2013-07-24 14:22:00,
2013-07-24 10:32:00,63.0,48.0,-100.00,WNW,295,6.0,10.0,57,0.00,,,0.00,552.000000,,2013-07-24 14:32:00,
2013-07-24 10:43:00,63.0,48.0,-100.00,WNW,295,6.0,10.0,57,0.00,,,0.00,552.000000,,2013-07-24 14:43:00,
2013-07-24 10:55:00,63.0,48.0,-100.00,WNW,295,6.0,10.0,57,0.00,,,0.00,552.000000,,2013-07-24 14:55:00,
2013-07-24 11:02:00,63.0,48.0,-100.00,WNW,295,6.0,10.0,57,0.00,,,0.00,552.000000,,2013-07-24 15:02:00,
2013-07-24 11:22:00,66.0,45.0,-100.00,NW,320,5.0,12.0,47,0.00,,,0.00,721.000000,,2013-07-24 15:22:00,
2013-07-24 11:33:00,66.0,45.0,-100.00,NW,320,5.0,12.0,47,0.00,,,0.00,721.000000,,2013-07-24 15:33:00,
2013-07-24 11:43:00,66.0,45.0,-100.00,NW,320,5.0,12.0,47,0.00,,,0.00,721.000000,,2013-07-24 15:43:00,
2013-07-24 11:53:00,66.0,45.0,-100.00,NW,320,5.0,12.0,47,0.00,,,0.00,721.000000,,2013-07-24 15:53:00,
2013-07-24 12:02:00,66.0,45.0,-100.00,NW,320,5.0,12.0,47,0.00,,,0.00,721.000000,,2013-07-24 16:02:00,
2013-07-24 12:23:00,67.0,46.0,-100.00,NNW,341,6.0,13.0,46,0.00,,,0.00,729.000000,,2013-07-24 16:23:00,
2013-07-24 12:33:00,67.0,46.0,-100.00,NNW,341,6.0,13.0,46,0.00,,,0.00,729.000000,,2013-07-24 16:33:00,
2013-07-24 12:43:00,67.0,46.0,-100.00,NNW,341,6.0,13.0,46,0.00,,,0.00,729.000000,,2013-07-24 16:43:00,
2013-07-24 12:53:00,67.0,46.0,-100.00,NNW,341,6.0,13.0,46,0.00,,,0.00,729.000000,,2013-07-24 16:53:00,
2013-07-24 13:02:00,67.0,46.0,-100.00,NNW,341,6.0,13.0,46,0.00,,,0.00,729.000000,,2013-07-24 17:02:00,
2013-07-24 13:22:00,69.0,45.0,-100.00,SSW,211,6.0,12.0,42,0.00,,,0.00,821.000000,,2013-07-24 17:22:00,
2013-07-24 13:33:00,69.0,45.0,-100.00,SSW,211,6.0,12.0,42,0.00,,,0.00,821.000000,,2013-07-24 17:33:00,
2013-07-24 13:43:00,69.0,45.0,-100.00,SSW,211,6.0,12.0,42,0.00,,,0.00,821.000000,,2013-07-24 17:43:00,
2013-07-24 13:53:00,69.0,45.0,-100.00,SSW,211,6.0,12.0,42,0.00,,,0.00,821.000000,,2013-07-24 17:53:00,
2013-07-24 14:02:00,69.0,45.0,-100.00,SSW,211,6.0,12.0,42,0.00,,,0.00,821.000000,,2013-07-24 18:02:00,
2013-07-24 14:22:00,71.0,47.0,-100.00,NNW,344,6.0,11.0,42,0.00,,,0.00,1039.000000,,2013-07-24 18:22:00,
2013-07-24 14:33:00,71.0,47.0,-100.00,NNW,344,6.0,11.0,42,0.00,,,0.00,1039.000000,,2013-07-24 18:33:00,
2013-07-24 14:43:00,71.0,47.0,-100.00,NNW,344,6.0,11.0,42,0.00,,,0.00,1039.000000,,2013-07-24 18:43:00,
2013-07-24 14:52:00,71.0,47.0,-100.00,NNW,344,6.0,11.0,42,0.00,,,0.00,1039.000000,,2013-07-24 18:52:00,
2013-07-24 15:02:00,71.0,47.0,-100.00,NNW,344,6.0,11.0,42,0.00,,,0.00,1039.000000,,2013-07-24 19:02:00,
2013-07-24 15:33:00,70.0,46.0,-100.00,NNE,21,8.0,15.0,43,0.00,,,0.00,821.000000,,2013-07-24 19:33:00,
2013-07-24 15:43:00,70.0,46.0,-100.00,NNE,21,8.0,15.0,43,0.00,,,0.00,821.000000,,2013-07-24 19:43:00,
2013-07-24 15:53:00,70.0,46.0,-100.00,NNE,21,8.0,15.0,43,0.00,,,0.00,821.000000,,2013-07-24 19:53:00,
2013-07-24 16:02:00,70.0,46.0,-100.00,NNE,21,8.0,15.0,43,0.00,,,0.00,821.000000,,2013-07-24 20:02:00,
2013-07-24 16:23:00,69.0,46.0,-100.00,NE,43,10.0,15.0,44,0.00,,,0.00,985.000000,,2013-07-24 20:23:00,
2013-07-24 16:33:00,69.0,46.0,-100.00,NE,43,10.0,15.0,44,0.00,,,0.00,985.000000,,2013-07-24 20:33:00,
2013-07-24 16:43:00,69.0,46.0,-100.00,NE,43,10.0,15.0,44,0.00,,,0.00,985.000000,,2013-07-24 20:43:00,
2013-07-24 16:53:00,69.0,46.0,-100.00,NE,43,10.0,15.0,44,0.00,,,0.00,985.000000,,2013-07-24 20:53:00,
2013-07-24 17:03:00,69.0,46.0,-100.00,NE,43,10.0,15.0,44,0.00,,,0.00,985.000000,,2013-07-24 21:03:00,
2013-07-24 17:32:00,69.0,44.0,-100.00,NNE,32,8.0,14.0,41,0.00,,,-99.99,747.000000,,2013-07-24 21:32:00,
2013-07-24 17:44:00,69.0,44.0,-100.00,NNE,32,8.0,14.0,41,0.00,,,-99.99,747.000000,,2013-07-24 21:44:00,
2013-07-24 17:53:00,69.0,44.0,-100.00,NNE,32,8.0,14.0,41,0.00,,,-99.99,747.000000,,2013-07-24 21:53:00,
2013-07-24 18:02:00,69.0,44.0,-100.00,NNE,32,8.0,14.0,41,0.00,,,-99.99,747.000000,,2013-07-24 22:02:00,
2013-07-24 18:32:00,70.0,45.0,-100.00,NE,38,6.0,11.0,41,0.00,,,0.00,265.000000,,2013-07-24 22:32:00,
2013-07-24 18:43:00,70.0,45.0,-100.00,NE,38,6.0,11.0,41,0.00,,,0.00,265.000000,,2013-07-24 22:43:00,
2013-07-24 18:53:00,70.0,45.0,-100.00,NE,38,6.0,11.0,41,0.00,,,0.00,265.000000,,2013-07-24 22:53:00,
2013-07-24 19:02:00,70.0,45.0,-100.00,NE,38,6.0,11.0,41,0.00,,,0.00,265.000000,,2013-07-24 23:02:00,
2013-07-24 19:33:00,66.0,44.0,-100.00,NNE,19,3.0,9.0,45,0.00,,,0.00,182.000000,,2013-07-24 23:33:00,
2013-07-24 19:43:00,66.0,44.0,-100.00,NNE,19,3.0,9.0,45,0.00,,,0.00,182.000000,,2013-07-24 23:43:00,
2013-07-24 19:52:00,66.0,44.0,-100.00,NNE,19,3.0,9.0,45,0.00,,,0.00,182.000000,,2013-07-24 23:52:00,
2013-07-24 20:02:00,66.0,44.0,-100.00,NNE,19,3.0,9.0,45,0.00,,,0.00,182.000000,,2013-07-25 00:02:00,
2013-07-24 20:33:00,65.0,46.0,-100.00,NNW,346,3.0,6.0,50,0.00,,,0.00,98.000000,,2013-07-25 00:33:00,
2013-07-24 20:43:00,65.0,46.0,-100.00,NNW,346,3.0,6.0,50,0.00,,,0.00,98.000000,,2013-07-25 00:43:00,
2013-07-24 20:53:00,65.0,46.0,-100.00,NNW,346,3.0,6.0,50,0.00,,,0.00,98.000000,,2013-07-25 00:53:00,
2013-07-24 21:03:00,65.0,46.0,-100.00,NNW,346,3.0,6.0,50,0.00,,,0.00,98.000000,,2013-07-25 01:03:00,
2013-07-24 21:32:00,64.0,47.0,-100.00,WSW,248,3.0,5.0,53,0.00,,,0.00,35.000000,,2013-07-25 01:32:00,
2013-07-24 21:43:00,64.0,47.0,-100.00,WSW,248,3.0,5.0,53,0.00,,,0.00,35.000000,,2013-07-25 01:43:00,
2013-07-24 21:53:00,64.0,47.0,-100.00,WSW,248,3.0,5.0,53,0.00,,,0.00,35.000000,,2013-07-25 01:53:00,
2013-07-24 22:02:00,64.0,47.0,-100.00,WSW,248,3.0,5.0,53,0.00,,,0.00,35.000000,,2013-07-25 02:02:00,
2013-07-24 22:33:00,60.0,48.0,-100.00,SW,229,3.0,5.0,64,0.00,,,0.00,2.000000,,2013-07-25 02:33:00,
2013-07-24 22:43:00,60.0,48.0,-100.00,SW,229,3.0,5.0,64,0.00,,,0.00,2.000000,,2013-07-25 02:43:00,
2013-07-24 22:53:00,60.0,48.0,-100.00,SW,229,3.0,5.0,64,0.00,,,0.00,2.000000,,2013-07-25 02:53:00,
2013-07-24 23:02:00,60.0,48.0,-100.00,SW,229,3.0,5.0,64,0.00,,,0.00,2.000000,,2013-07-25 03:02:00,
2013-07-24 23:40:00,55.0,48.0,-100.00,NW,315,1.0,4.0,77,0.00,,,0.00,0.000000,,2013-07-25 03:40:00,
2013-07-24 23:53:00,55.0,48.0,-100.00,NW,315,1.0,4.0,77,0.00,,,0.00,0.000000,,2013-07-25 03:53:00,